sensor_id;sensor_type;location;lat;lon;timestamp;P1;durP1;ratioP1;P2;durP2;ratioP2
4148;SDS011;2088;51.032;7.082;2023-03-01T00:02:20;14.50;;;5.40;;
4148;SDS011;2088;51.032;7.082;2023-03-01T00:04:48;10.13;;;3.97;;
4148;SDS011;2088;51.032;7.082;2023-03-01T00:07:15;7.30;;;5.00;;
4148;SDS011;2088;51.032;7.082;2023-03-01T00:09:43;6.37;;;3.77;;
4148;SDS011;2088;51.032;7.082;2023-03-01T00:12:11;7.97;;;3.67;;
4148;SDS011;2088;51.032;7.082;2023-03-01T00:14:38;4.57;;;3.53;;
4148;SDS011;2088;51.032;7.082;2023-03-01T00:17:05;5.50;;;4.10;;
4148;SDS011;2088;51.032;7.082;2023-03-01T00:19:32;6.10;;;4.00;;
4148;SDS011;2088;51.032;7.082;2023-03-01T00:21:59;5.27;;;2.90;;
4148;SDS011;2088;51.032;7.082;2023-03-01T00:24:26;4.67;;;3.63;;
4148;SDS011;2088;51.032;7.082;2023-03-01T00:26:55;5.87;;;3.47;;
4148;SDS011;2088;51.032;7.082;2023-03-01T00:29:22;4.90;;;3.70;;
4148;SDS011;2088;51.032;7.082;2023-03-01T00:31:49;5.80;;;3.87;;
4148;SDS011;2088;51.032;7.082;2023-03-01T00:34:16;4.53;;;3.67;;
4148;SDS011;2088;51.032;7.082;2023-03-01T00:36:43;5.90;;;3.07;;
4148;SDS011;2088;51.032;7.082;2023-03-01T00:39:11;7.17;;;3.60;;
4148;SDS011;2088;51.032;7.082;2023-03-01T00:41:38;6.57;;;3.40;;
4148;SDS011;2088;51.032;7.082;2023-03-01T00:44:07;6.23;;;4.03;;
4148;SDS011;2088;51.032;7.082;2023-03-01T00:46:34;5.23;;;3.20;;
4148;SDS011;2088;51.032;7.082;2023-03-01T00:49:01;6.57;;;4.30;;
4148;SDS011;2088;51.032;7.082;2023-03-01T00:51:29;8.70;;;3.03;;
4148;SDS011;2088;51.032;7.082;2023-03-01T00:53:58;5.87;;;3.53;;
4148;SDS011;2088;51.032;7.082;2023-03-01T00:56:25;4.77;;;3.20;;
4148;SDS011;2088;51.032;7.082;2023-03-01T00:58:52;4.30;;;3.40;;
4148;SDS011;2088;51.032;7.082;2023-03-01T01:01:21;6.13;;;3.30;;
4148;SDS011;2088;51.032;7.082;2023-03-01T01:03:49;16.07;;;3.90;;
4148;SDS011;2088;51.032;7.082;2023-03-01T01:06:32;10.77;;;3.90;;
4148;SDS011;2088;51.032;7.082;2023-03-01T01:08:59;8.83;;;3.50;;
4148;SDS011;2088;51.032;7.082;2023-03-01T01:11:27;5.37;;;3.20;;
4148;SDS011;2088;51.032;7.082;2023-03-01T01:13:54;5.47;;;3.90;;
4148;SDS011;2088;51.032;7.082;2023-03-01T01:16:24;8.03;;;4.30;;
4148;SDS011;2088;51.032;7.082;2023-03-01T01:18:51;7.47;;;3.60;;
4148;SDS011;2088;51.032;7.082;2023-03-01T01:21:19;4.70;;;2.90;;
4148;SDS011;2088;51.032;7.082;2023-03-01T01:23:47;6.90;;;3.40;;
4148;SDS011;2088;51.032;7.082;2023-03-01T01:26:16;7.73;;;3.10;;
4148;SDS011;2088;51.032;7.082;2023-03-01T01:28:43;5.30;;;3.10;;
4148;SDS011;2088;51.032;7.082;2023-03-01T01:31:10;7.30;;;3.43;;
4148;SDS011;2088;51.032;7.082;2023-03-01T01:33:39;11.63;;;3.57;;
4148;SDS011;2088;51.032;7.082;2023-03-01T01:36:07;5.40;;;3.47;;
4148;SDS011;2088;51.032;7.082;2023-03-01T01:38:34;5.13;;;3.60;;
4148;SDS011;2088;51.032;7.082;2023-03-01T01:41:01;6.60;;;3.73;;
4148;SDS011;2088;51.032;7.082;2023-03-01T01:43:30;3.40;;;2.47;;
4148;SDS011;2088;51.032;7.082;2023-03-01T01:45:58;5.87;;;3.67;;
4148;SDS011;2088;51.032;7.082;2023-03-01T01:48:27;7.43;;;3.40;;
4148;SDS011;2088;51.032;7.082;2023-03-01T01:51:06;4.97;;;3.17;;
4148;SDS011;2088;51.032;7.082;2023-03-01T01:53:34;11.80;;;4.60;;
4148;SDS011;2088;51.032;7.082;2023-03-01T01:56:02;8.27;;;4.27;;
4148;SDS011;2088;51.032;7.082;2023-03-01T01:58:29;5.30;;;2.80;;
4148;SDS011;2088;51.032;7.082;2023-03-01T02:00:57;4.20;;;3.13;;
4148;SDS011;2088;51.032;7.082;2023-03-01T02:03:26;8.20;;;4.00;;
4148;SDS011;2088;51.032;7.082;2023-03-01T02:05:59;6.33;;;2.83;;
4148;SDS011;2088;51.032;7.082;2023-03-01T02:08:30;9.23;;;3.80;;
4148;SDS011;2088;51.032;7.082;2023-03-01T02:10:58;9.63;;;2.77;;
4148;SDS011;2088;51.032;7.082;2023-03-01T02:13:26;6.23;;;3.00;;
4148;SDS011;2088;51.032;7.082;2023-03-01T02:15:53;6.87;;;4.23;;
4148;SDS011;2088;51.032;7.082;2023-03-01T02:18:20;4.87;;;3.67;;
4148;SDS011;2088;51.032;7.082;2023-03-01T02:20:50;6.70;;;3.20;;
4148;SDS011;2088;51.032;7.082;2023-03-01T02:23:22;4.87;;;3.50;;
4148;SDS011;2088;51.032;7.082;2023-03-01T02:25:51;6.10;;;4.40;;
4148;SDS011;2088;51.032;7.082;2023-03-01T02:28:27;6.10;;;3.80;;
4148;SDS011;2088;51.032;7.082;2023-03-01T02:30:56;6.27;;;3.60;;
4148;SDS011;2088;51.032;7.082;2023-03-01T02:33:40;6.87;;;3.30;;
4148;SDS011;2088;51.032;7.082;2023-03-01T02:36:09;3.20;;;2.90;;
4148;SDS011;2088;51.032;7.082;2023-03-01T02:38:38;6.40;;;3.87;;
4148;SDS011;2088;51.032;7.082;2023-03-01T02:41:05;7.70;;;3.70;;
4148;SDS011;2088;51.032;7.082;2023-03-01T02:43:35;5.73;;;3.57;;
4148;SDS011;2088;51.032;7.082;2023-03-01T02:46:03;8.50;;;4.37;;
4148;SDS011;2088;51.032;7.082;2023-03-01T02:48:38;10.67;;;4.40;;
4148;SDS011;2088;51.032;7.082;2023-03-01T02:51:07;6.43;;;3.37;;
4148;SDS011;2088;51.032;7.082;2023-03-01T02:53:39;5.70;;;3.70;;
4148;SDS011;2088;51.032;7.082;2023-03-01T02:56:08;5.83;;;3.90;;
4148;SDS011;2088;51.032;7.082;2023-03-01T02:58:39;6.27;;;2.80;;
4148;SDS011;2088;51.032;7.082;2023-03-01T03:01:10;4.00;;;3.50;;
4148;SDS011;2088;51.032;7.082;2023-03-01T03:03:38;5.23;;;3.60;;
4148;SDS011;2088;51.032;7.082;2023-03-01T03:06:05;5.30;;;3.67;;
4148;SDS011;2088;51.032;7.082;2023-03-01T03:08:33;5.53;;;3.73;;
4148;SDS011;2088;51.032;7.082;2023-03-01T03:11:00;4.40;;;3.00;;
4148;SDS011;2088;51.032;7.082;2023-03-01T03:13:27;4.10;;;3.20;;
4148;SDS011;2088;51.032;7.082;2023-03-01T03:15:55;5.97;;;3.43;;
4148;SDS011;2088;51.032;7.082;2023-03-01T03:18:23;6.10;;;3.53;;
4148;SDS011;2088;51.032;7.082;2023-03-01T03:20:51;6.30;;;4.20;;
4148;SDS011;2088;51.032;7.082;2023-03-01T03:23:19;11.47;;;4.50;;
4148;SDS011;2088;51.032;7.082;2023-03-01T03:25:47;7.83;;;4.60;;
4148;SDS011;2088;51.032;7.082;2023-03-01T03:28:15;6.83;;;3.53;;
4148;SDS011;2088;51.032;7.082;2023-03-01T03:30:42;4.70;;;3.60;;
4148;SDS011;2088;51.032;7.082;2023-03-01T03:33:11;8.40;;;3.80;;
4148;SDS011;2088;51.032;7.082;2023-03-01T03:35:39;9.73;;;5.40;;
4148;SDS011;2088;51.032;7.082;2023-03-01T03:38:07;5.90;;;3.70;;
4148;SDS011;2088;51.032;7.082;2023-03-01T03:40:41;5.20;;;4.13;;
4148;SDS011;2088;51.032;7.082;2023-03-01T03:43:09;6.77;;;3.20;;
4148;SDS011;2088;51.032;7.082;2023-03-01T03:45:37;8.43;;;3.83;;
4148;SDS011;2088;51.032;7.082;2023-03-01T03:48:05;5.47;;;3.80;;
4148;SDS011;2088;51.032;7.082;2023-03-01T03:50:34;6.97;;;3.47;;
4148;SDS011;2088;51.032;7.082;2023-03-01T03:53:02;6.03;;;3.60;;
4148;SDS011;2088;51.032;7.082;2023-03-01T03:55:30;7.30;;;4.63;;
4148;SDS011;2088;51.032;7.082;2023-03-01T03:57:59;6.20;;;3.70;;
4148;SDS011;2088;51.032;7.082;2023-03-01T04:00:31;8.53;;;4.13;;
4148;SDS011;2088;51.032;7.082;2023-03-01T04:02:59;6.30;;;3.87;;
4148;SDS011;2088;51.032;7.082;2023-03-01T04:05:27;5.20;;;4.03;;
4148;SDS011;2088;51.032;7.082;2023-03-01T04:07:55;7.70;;;4.10;;
4148;SDS011;2088;51.032;7.082;2023-03-01T04:10:32;7.60;;;4.00;;
4148;SDS011;2088;51.032;7.082;2023-03-01T04:13:00;6.57;;;4.17;;
4148;SDS011;2088;51.032;7.082;2023-03-01T04:15:27;6.17;;;4.17;;
4148;SDS011;2088;51.032;7.082;2023-03-01T04:17:54;4.57;;;2.90;;
4148;SDS011;2088;51.032;7.082;2023-03-01T04:20:23;4.50;;;3.57;;
4148;SDS011;2088;51.032;7.082;2023-03-01T04:22:51;8.30;;;3.80;;
4148;SDS011;2088;51.032;7.082;2023-03-01T04:25:19;7.83;;;4.53;;
4148;SDS011;2088;51.032;7.082;2023-03-01T04:27:46;8.30;;;4.13;;
4148;SDS011;2088;51.032;7.082;2023-03-01T04:30:14;12.40;;;6.30;;
4148;SDS011;2088;51.032;7.082;2023-03-01T04:32:41;5.50;;;4.00;;
4148;SDS011;2088;51.032;7.082;2023-03-01T04:35:08;7.33;;;4.77;;
4148;SDS011;2088;51.032;7.082;2023-03-01T04:37:35;6.00;;;4.33;;
4148;SDS011;2088;51.032;7.082;2023-03-01T04:40:02;11.10;;;4.97;;
4148;SDS011;2088;51.032;7.082;2023-03-01T04:42:39;4.80;;;4.17;;
4148;SDS011;2088;51.032;7.082;2023-03-01T04:45:07;5.70;;;4.03;;
4148;SDS011;2088;51.032;7.082;2023-03-01T04:47:38;7.80;;;3.80;;
4148;SDS011;2088;51.032;7.082;2023-03-01T04:50:05;7.43;;;5.30;;
4148;SDS011;2088;51.032;7.082;2023-03-01T04:52:32;10.57;;;6.83;;
4148;SDS011;2088;51.032;7.082;2023-03-01T04:55:00;6.70;;;4.40;;
4148;SDS011;2088;51.032;7.082;2023-03-01T04:57:27;8.73;;;4.30;;
4148;SDS011;2088;51.032;7.082;2023-03-01T04:59:55;5.20;;;4.03;;
4148;SDS011;2088;51.032;7.082;2023-03-01T05:02:22;5.53;;;4.20;;
4148;SDS011;2088;51.032;7.082;2023-03-01T05:04:49;5.30;;;3.77;;
4148;SDS011;2088;51.032;7.082;2023-03-01T05:07:17;6.47;;;3.73;;
4148;SDS011;2088;51.032;7.082;2023-03-01T05:09:45;8.27;;;4.47;;
4148;SDS011;2088;51.032;7.082;2023-03-01T05:12:12;8.20;;;4.23;;
4148;SDS011;2088;51.032;7.082;2023-03-01T05:14:39;5.80;;;4.10;;
4148;SDS011;2088;51.032;7.082;2023-03-01T05:17:07;6.20;;;3.90;;
4148;SDS011;2088;51.032;7.082;2023-03-01T05:19:34;12.03;;;4.30;;
4148;SDS011;2088;51.032;7.082;2023-03-01T05:22:01;4.60;;;3.60;;
4148;SDS011;2088;51.032;7.082;2023-03-01T05:24:30;9.77;;;5.20;;
4148;SDS011;2088;51.032;7.082;2023-03-01T05:26:57;8.73;;;4.27;;
4148;SDS011;2088;51.032;7.082;2023-03-01T05:29:25;8.83;;;4.17;;
4148;SDS011;2088;51.032;7.082;2023-03-01T05:31:52;11.47;;;4.50;;
4148;SDS011;2088;51.032;7.082;2023-03-01T05:34:23;8.50;;;4.63;;
4148;SDS011;2088;51.032;7.082;2023-03-01T05:36:50;9.30;;;4.50;;
4148;SDS011;2088;51.032;7.082;2023-03-01T05:39:18;9.23;;;4.60;;
4148;SDS011;2088;51.032;7.082;2023-03-01T05:41:45;10.47;;;5.40;;
4148;SDS011;2088;51.032;7.082;2023-03-01T05:44:13;12.27;;;5.37;;
4148;SDS011;2088;51.032;7.082;2023-03-01T05:46:40;10.17;;;5.03;;
4148;SDS011;2088;51.032;7.082;2023-03-01T05:49:08;5.60;;;4.63;;
4148;SDS011;2088;51.032;7.082;2023-03-01T05:51:36;6.43;;;4.17;;
4148;SDS011;2088;51.032;7.082;2023-03-01T05:54:03;6.50;;;3.90;;
4148;SDS011;2088;51.032;7.082;2023-03-01T05:56:32;8.60;;;4.63;;
4148;SDS011;2088;51.032;7.082;2023-03-01T05:58:59;9.03;;;3.90;;
4148;SDS011;2088;51.032;7.082;2023-03-01T06:01:26;6.57;;;4.40;;
4148;SDS011;2088;51.032;7.082;2023-03-01T06:03:54;7.43;;;4.17;;
4148;SDS011;2088;51.032;7.082;2023-03-01T06:06:21;10.30;;;5.07;;
4148;SDS011;2088;51.032;7.082;2023-03-01T06:08:50;11.23;;;5.10;;
4148;SDS011;2088;51.032;7.082;2023-03-01T06:11:17;10.60;;;5.37;;
4148;SDS011;2088;51.032;7.082;2023-03-01T06:13:45;10.50;;;5.40;;
4148;SDS011;2088;51.032;7.082;2023-03-01T06:16:12;10.87;;;4.73;;
4148;SDS011;2088;51.032;7.082;2023-03-01T06:18:39;8.47;;;4.70;;
4148;SDS011;2088;51.032;7.082;2023-03-01T06:21:07;9.70;;;5.57;;
4148;SDS011;2088;51.032;7.082;2023-03-01T06:23:34;8.67;;;5.13;;
4148;SDS011;2088;51.032;7.082;2023-03-01T06:26:06;6.10;;;4.87;;
4148;SDS011;2088;51.032;7.082;2023-03-01T06:28:33;8.87;;;4.57;;
4148;SDS011;2088;51.032;7.082;2023-03-01T06:31:00;10.57;;;5.20;;
4148;SDS011;2088;51.032;7.082;2023-03-01T06:33:27;6.10;;;4.30;;
4148;SDS011;2088;51.032;7.082;2023-03-01T06:35:54;6.80;;;4.60;;
4148;SDS011;2088;51.032;7.082;2023-03-01T06:38:22;8.93;;;4.90;;
4148;SDS011;2088;51.032;7.082;2023-03-01T06:40:51;10.30;;;6.33;;
4148;SDS011;2088;51.032;7.082;2023-03-01T06:43:20;11.17;;;5.10;;
4148;SDS011;2088;51.032;7.082;2023-03-01T06:45:47;10.00;;;5.53;;
4148;SDS011;2088;51.032;7.082;2023-03-01T06:48:14;18.00;;;5.47;;
4148;SDS011;2088;51.032;7.082;2023-03-01T06:50:41;5.83;;;4.63;;
4148;SDS011;2088;51.032;7.082;2023-03-01T06:53:08;10.60;;;5.40;;
4148;SDS011;2088;51.032;7.082;2023-03-01T06:55:35;8.93;;;5.20;;
4148;SDS011;2088;51.032;7.082;2023-03-01T06:58:02;8.03;;;4.50;;
4148;SDS011;2088;51.032;7.082;2023-03-01T07:00:31;9.87;;;5.90;;
4148;SDS011;2088;51.032;7.082;2023-03-01T07:02:58;7.57;;;4.87;;
4148;SDS011;2088;51.032;7.082;2023-03-01T07:05:26;14.00;;;4.83;;
4148;SDS011;2088;51.032;7.082;2023-03-01T07:07:54;11.77;;;4.60;;
4148;SDS011;2088;51.032;7.082;2023-03-01T07:10:21;7.23;;;5.13;;
4148;SDS011;2088;51.032;7.082;2023-03-01T07:12:48;6.90;;;4.83;;
4148;SDS011;2088;51.032;7.082;2023-03-01T07:15:15;6.63;;;4.40;;
4148;SDS011;2088;51.032;7.082;2023-03-01T07:17:43;9.07;;;4.80;;
4148;SDS011;2088;51.032;7.082;2023-03-01T07:20:12;11.03;;;6.10;;
4148;SDS011;2088;51.032;7.082;2023-03-01T07:22:40;10.13;;;5.80;;
4148;SDS011;2088;51.032;7.082;2023-03-01T07:25:08;7.83;;;5.23;;
4148;SDS011;2088;51.032;7.082;2023-03-01T07:27:35;8.73;;;5.23;;
4148;SDS011;2088;51.032;7.082;2023-03-01T07:30:02;6.67;;;4.33;;
4148;SDS011;2088;51.032;7.082;2023-03-01T07:32:30;10.33;;;5.50;;
4148;SDS011;2088;51.032;7.082;2023-03-01T07:34:58;9.17;;;5.80;;
4148;SDS011;2088;51.032;7.082;2023-03-01T07:37:25;8.13;;;4.70;;
4148;SDS011;2088;51.032;7.082;2023-03-01T07:39:52;11.17;;;5.90;;
4148;SDS011;2088;51.032;7.082;2023-03-01T07:42:19;9.77;;;4.63;;
4148;SDS011;2088;51.032;7.082;2023-03-01T07:44:46;14.67;;;5.10;;
4148;SDS011;2088;51.032;7.082;2023-03-01T07:47:13;8.40;;;5.60;;
4148;SDS011;2088;51.032;7.082;2023-03-01T07:49:40;8.50;;;5.30;;
4148;SDS011;2088;51.032;7.082;2023-03-01T07:52:10;11.80;;;6.60;;
4148;SDS011;2088;51.032;7.082;2023-03-01T07:54:37;12.30;;;5.07;;
4148;SDS011;2088;51.032;7.082;2023-03-01T07:57:04;11.53;;;5.83;;
4148;SDS011;2088;51.032;7.082;2023-03-01T07:59:31;11.07;;;6.37;;
4148;SDS011;2088;51.032;7.082;2023-03-01T08:01:58;10.53;;;7.03;;
4148;SDS011;2088;51.032;7.082;2023-03-01T08:04:25;10.47;;;5.73;;
4148;SDS011;2088;51.032;7.082;2023-03-01T08:06:53;14.90;;;6.50;;
4148;SDS011;2088;51.032;7.082;2023-03-01T08:09:21;7.20;;;4.57;;
4148;SDS011;2088;51.032;7.082;2023-03-01T08:11:48;12.30;;;6.10;;
4148;SDS011;2088;51.032;7.082;2023-03-01T08:14:15;14.40;;;5.60;;
4148;SDS011;2088;51.032;7.082;2023-03-01T08:16:42;13.43;;;6.67;;
4148;SDS011;2088;51.032;7.082;2023-03-01T08:19:11;10.27;;;5.43;;
4148;SDS011;2088;51.032;7.082;2023-03-01T08:21:38;15.80;;;6.40;;
4148;SDS011;2088;51.032;7.082;2023-03-01T08:24:05;10.63;;;5.83;;
4148;SDS011;2088;51.032;7.082;2023-03-01T08:26:36;9.80;;;4.30;;
4148;SDS011;2088;51.032;7.082;2023-03-01T08:29:03;6.67;;;5.40;;
4148;SDS011;2088;51.032;7.082;2023-03-01T08:31:31;10.83;;;5.50;;
4148;SDS011;2088;51.032;7.082;2023-03-01T08:34:00;13.90;;;6.00;;
4148;SDS011;2088;51.032;7.082;2023-03-01T08:36:29;9.50;;;4.87;;
4148;SDS011;2088;51.032;7.082;2023-03-01T08:38:56;15.77;;;5.90;;
4148;SDS011;2088;51.032;7.082;2023-03-01T08:41:24;8.20;;;5.60;;
4148;SDS011;2088;51.032;7.082;2023-03-01T08:43:52;11.93;;;5.00;;
4148;SDS011;2088;51.032;7.082;2023-03-01T08:46:23;9.30;;;5.00;;
4148;SDS011;2088;51.032;7.082;2023-03-01T08:48:50;6.70;;;4.70;;
4148;SDS011;2088;51.032;7.082;2023-03-01T08:51:18;11.97;;;5.80;;
4148;SDS011;2088;51.032;7.082;2023-03-01T08:53:45;10.13;;;5.87;;
4148;SDS011;2088;51.032;7.082;2023-03-01T08:56:12;11.03;;;4.60;;
4148;SDS011;2088;51.032;7.082;2023-03-01T08:58:40;11.50;;;4.80;;
4148;SDS011;2088;51.032;7.082;2023-03-01T09:01:12;9.23;;;5.03;;
4148;SDS011;2088;51.032;7.082;2023-03-01T09:03:39;10.17;;;4.53;;
4148;SDS011;2088;51.032;7.082;2023-03-01T09:06:07;8.30;;;5.57;;
4148;SDS011;2088;51.032;7.082;2023-03-01T09:08:34;5.53;;;3.80;;
4148;SDS011;2088;51.032;7.082;2023-03-01T09:11:01;11.73;;;4.97;;
4148;SDS011;2088;51.032;7.082;2023-03-01T09:13:29;11.80;;;5.20;;
4148;SDS011;2088;51.032;7.082;2023-03-01T09:15:57;7.33;;;4.50;;
4148;SDS011;2088;51.032;7.082;2023-03-01T09:18:25;7.33;;;5.80;;
4148;SDS011;2088;51.032;7.082;2023-03-01T09:20:52;7.60;;;4.23;;
4148;SDS011;2088;51.032;7.082;2023-03-01T09:23:21;8.27;;;5.53;;
4148;SDS011;2088;51.032;7.082;2023-03-01T09:25:48;7.90;;;4.63;;
4148;SDS011;2088;51.032;7.082;2023-03-01T09:28:15;7.93;;;5.00;;
4148;SDS011;2088;51.032;7.082;2023-03-01T09:30:42;10.17;;;5.27;;
4148;SDS011;2088;51.032;7.082;2023-03-01T09:33:09;5.77;;;4.80;;
4148;SDS011;2088;51.032;7.082;2023-03-01T09:35:41;18.53;;;6.13;;
4148;SDS011;2088;51.032;7.082;2023-03-01T09:38:11;7.80;;;5.33;;
4148;SDS011;2088;51.032;7.082;2023-03-01T09:40:41;10.53;;;6.37;;
4148;SDS011;2088;51.032;7.082;2023-03-01T09:43:13;9.53;;;4.80;;
4148;SDS011;2088;51.032;7.082;2023-03-01T09:45:43;10.43;;;5.60;;
4148;SDS011;2088;51.032;7.082;2023-03-01T09:48:12;8.77;;;5.33;;
4148;SDS011;2088;51.032;7.082;2023-03-01T09:50:43;8.77;;;5.80;;
4148;SDS011;2088;51.032;7.082;2023-03-01T09:53:13;5.73;;;4.37;;
4148;SDS011;2088;51.032;7.082;2023-03-01T09:55:43;10.20;;;5.47;;
4148;SDS011;2088;51.032;7.082;2023-03-01T10:00:52;6.17;;;4.27;;
4148;SDS011;2088;51.032;7.082;2023-03-01T10:03:21;7.87;;;4.90;;
4148;SDS011;2088;51.032;7.082;2023-03-01T10:05:55;9.50;;;5.07;;
4148;SDS011;2088;51.032;7.082;2023-03-01T10:08:25;12.30;;;5.60;;
4148;SDS011;2088;51.032;7.082;2023-03-01T10:10:56;8.57;;;5.10;;
4148;SDS011;2088;51.032;7.082;2023-03-01T10:13:23;8.47;;;5.07;;
4148;SDS011;2088;51.032;7.082;2023-03-01T10:15:53;12.40;;;4.57;;
4148;SDS011;2088;51.032;7.082;2023-03-01T10:18:22;9.80;;;4.83;;
4148;SDS011;2088;51.032;7.082;2023-03-01T10:20:52;6.67;;;4.50;;
4148;SDS011;2088;51.032;7.082;2023-03-01T10:23:21;18.00;;;5.97;;
4148;SDS011;2088;51.032;7.082;2023-03-01T10:25:52;7.07;;;5.20;;
4148;SDS011;2088;51.032;7.082;2023-03-01T10:28:25;9.63;;;4.90;;
4148;SDS011;2088;51.032;7.082;2023-03-01T10:30:52;11.30;;;5.00;;
4148;SDS011;2088;51.032;7.082;2023-03-01T10:33:20;8.10;;;5.00;;
4148;SDS011;2088;51.032;7.082;2023-03-01T10:35:48;15.27;;;6.13;;
4148;SDS011;2088;51.032;7.082;2023-03-01T10:38:16;11.80;;;5.07;;
4148;SDS011;2088;51.032;7.082;2023-03-01T10:40:53;10.73;;;5.80;;
4148;SDS011;2088;51.032;7.082;2023-03-01T10:43:22;10.27;;;5.40;;
4148;SDS011;2088;51.032;7.082;2023-03-01T10:45:49;6.83;;;4.60;;
4148;SDS011;2088;51.032;7.082;2023-03-01T10:48:17;9.10;;;5.43;;
4148;SDS011;2088;51.032;7.082;2023-03-01T10:50:46;9.40;;;5.23;;
4148;SDS011;2088;51.032;7.082;2023-03-01T10:53:19;10.07;;;6.10;;
4148;SDS011;2088;51.032;7.082;2023-03-01T10:55:47;8.30;;;4.57;;
4148;SDS011;2088;51.032;7.082;2023-03-01T10:58:19;15.40;;;6.50;;
4148;SDS011;2088;51.032;7.082;2023-03-01T11:00:48;10.57;;;5.83;;
4148;SDS011;2088;51.032;7.082;2023-03-01T11:03:16;18.70;;;5.53;;
4148;SDS011;2088;51.032;7.082;2023-03-01T11:05:50;7.67;;;5.27;;
4148;SDS011;2088;51.032;7.082;2023-03-01T11:08:28;7.40;;;4.63;;
4148;SDS011;2088;51.032;7.082;2023-03-01T11:11:03;8.23;;;5.30;;
4148;SDS011;2088;51.032;7.082;2023-03-01T11:13:32;11.87;;;5.47;;
4148;SDS011;2088;51.032;7.082;2023-03-01T11:15:59;6.70;;;4.97;;
4148;SDS011;2088;51.032;7.082;2023-03-01T11:18:27;6.40;;;4.83;;
4148;SDS011;2088;51.032;7.082;2023-03-01T11:20:55;10.83;;;6.43;;
4148;SDS011;2088;51.032;7.082;2023-03-01T11:23:23;6.67;;;5.07;;
4148;SDS011;2088;51.032;7.082;2023-03-01T11:25:51;9.13;;;5.10;;
4148;SDS011;2088;51.032;7.082;2023-03-01T11:28:20;8.00;;;5.37;;
4148;SDS011;2088;51.032;7.082;2023-03-01T11:30:50;6.47;;;4.87;;
4148;SDS011;2088;51.032;7.082;2023-03-01T11:33:19;9.57;;;5.33;;
4148;SDS011;2088;51.032;7.082;2023-03-01T11:35:49;11.60;;;6.40;;
4148;SDS011;2088;51.032;7.082;2023-03-01T11:38:22;7.93;;;4.90;;
4148;SDS011;2088;51.032;7.082;2023-03-01T11:40:50;8.70;;;5.40;;
4148;SDS011;2088;51.032;7.082;2023-03-01T11:43:21;9.63;;;5.83;;
4148;SDS011;2088;51.032;7.082;2023-03-01T11:45:58;6.30;;;4.73;;
4148;SDS011;2088;51.032;7.082;2023-03-01T11:48:38;7.67;;;6.17;;
4148;SDS011;2088;51.032;7.082;2023-03-01T11:51:09;13.30;;;7.60;;
4148;SDS011;2088;51.032;7.082;2023-03-01T11:53:48;12.70;;;5.90;;
4148;SDS011;2088;51.032;7.082;2023-03-01T11:56:21;9.33;;;5.77;;
4148;SDS011;2088;51.032;7.082;2023-03-01T11:58:57;8.90;;;5.23;;
4148;SDS011;2088;51.032;7.082;2023-03-01T12:01:28;9.30;;;5.60;;
4148;SDS011;2088;51.032;7.082;2023-03-01T12:04:03;16.57;;;4.53;;
4148;SDS011;2088;51.032;7.082;2023-03-01T12:06:39;9.13;;;5.57;;
4148;SDS011;2088;51.032;7.082;2023-03-01T12:09:14;7.70;;;5.20;;
4148;SDS011;2088;51.032;7.082;2023-03-01T12:11:48;14.23;;;4.80;;
4148;SDS011;2088;51.032;7.082;2023-03-01T12:14:21;16.10;;;5.40;;
4148;SDS011;2088;51.032;7.082;2023-03-01T12:16:59;8.33;;;5.00;;
4148;SDS011;2088;51.032;7.082;2023-03-01T12:19:42;8.70;;;4.60;;
4148;SDS011;2088;51.032;7.082;2023-03-01T12:22:17;12.30;;;5.33;;
4148;SDS011;2088;51.032;7.082;2023-03-01T12:24:51;7.17;;;4.70;;
4148;SDS011;2088;51.032;7.082;2023-03-01T12:27:26;10.57;;;4.60;;
4148;SDS011;2088;51.032;7.082;2023-03-01T12:29:59;8.20;;;5.10;;
4148;SDS011;2088;51.032;7.082;2023-03-01T12:32:34;7.87;;;4.80;;
4148;SDS011;2088;51.032;7.082;2023-03-01T12:35:13;6.80;;;4.43;;
4148;SDS011;2088;51.032;7.082;2023-03-01T12:37:46;13.90;;;4.60;;
4148;SDS011;2088;51.032;7.082;2023-03-01T12:40:25;4.97;;;3.80;;
4148;SDS011;2088;51.032;7.082;2023-03-01T12:42:57;12.67;;;4.40;;
4148;SDS011;2088;51.032;7.082;2023-03-01T12:45:30;6.33;;;4.47;;
4148;SDS011;2088;51.032;7.082;2023-03-01T12:48:05;8.70;;;5.10;;
4148;SDS011;2088;51.032;7.082;2023-03-01T12:50:36;10.07;;;5.20;;
4148;SDS011;2088;51.032;7.082;2023-03-01T12:53:07;7.10;;;4.70;;
4148;SDS011;2088;51.032;7.082;2023-03-01T12:55:38;7.20;;;4.83;;
4148;SDS011;2088;51.032;7.082;2023-03-01T12:58:07;5.77;;;4.50;;
4148;SDS011;2088;51.032;7.082;2023-03-01T13:00:40;10.20;;;5.50;;
4148;SDS011;2088;51.032;7.082;2023-03-01T13:03:12;11.07;;;5.53;;
4148;SDS011;2088;51.032;7.082;2023-03-01T13:05:46;9.27;;;6.30;;
4148;SDS011;2088;51.032;7.082;2023-03-01T13:08:16;7.77;;;4.73;;
4148;SDS011;2088;51.032;7.082;2023-03-01T13:10:46;11.87;;;5.20;;
4148;SDS011;2088;51.032;7.082;2023-03-01T13:13:19;13.00;;;5.37;;
4148;SDS011;2088;51.032;7.082;2023-03-01T13:15:46;7.97;;;5.50;;
4148;SDS011;2088;51.032;7.082;2023-03-01T13:18:33;7.13;;;4.50;;
4148;SDS011;2088;51.032;7.082;2023-03-01T13:21:01;6.47;;;4.77;;
4148;SDS011;2088;51.032;7.082;2023-03-01T13:23:31;6.53;;;4.50;;
4148;SDS011;2088;51.032;7.082;2023-03-01T13:26:00;11.00;;;5.90;;
4148;SDS011;2088;51.032;7.082;2023-03-01T13:28:46;6.90;;;4.30;;
4148;SDS011;2088;51.032;7.082;2023-03-01T13:34:01;13.53;;;4.77;;
4148;SDS011;2088;51.032;7.082;2023-03-01T13:36:48;8.10;;;5.37;;
4148;SDS011;2088;51.032;7.082;2023-03-01T13:42:00;8.40;;;5.03;;
4148;SDS011;2088;51.032;7.082;2023-03-01T13:44:29;9.30;;;5.27;;
4148;SDS011;2088;51.032;7.082;2023-03-01T13:46:57;6.83;;;4.20;;
4148;SDS011;2088;51.032;7.082;2023-03-01T13:49:27;10.83;;;4.50;;
4148;SDS011;2088;51.032;7.082;2023-03-01T13:51:54;6.40;;;4.67;;
4148;SDS011;2088;51.032;7.082;2023-03-01T13:54:24;6.20;;;4.60;;
4148;SDS011;2088;51.032;7.082;2023-03-01T13:56:52;10.13;;;4.10;;
4148;SDS011;2088;51.032;7.082;2023-03-01T13:59:20;9.07;;;4.13;;
4148;SDS011;2088;51.032;7.082;2023-03-01T14:01:51;11.13;;;4.40;;
4148;SDS011;2088;51.032;7.082;2023-03-01T14:04:19;5.50;;;4.40;;
4148;SDS011;2088;51.032;7.082;2023-03-01T14:06:48;6.73;;;4.00;;
4148;SDS011;2088;51.032;7.082;2023-03-01T14:09:16;6.10;;;4.53;;
4148;SDS011;2088;51.032;7.082;2023-03-01T14:11:50;7.13;;;4.30;;
4148;SDS011;2088;51.032;7.082;2023-03-01T14:14:30;6.10;;;4.67;;
4148;SDS011;2088;51.032;7.082;2023-03-01T14:17:00;10.57;;;5.20;;
4148;SDS011;2088;51.032;7.082;2023-03-01T14:19:31;6.60;;;4.83;;
4148;SDS011;2088;51.032;7.082;2023-03-01T14:22:00;11.67;;;4.40;;
4148;SDS011;2088;51.032;7.082;2023-03-01T14:24:28;8.13;;;4.30;;
4148;SDS011;2088;51.032;7.082;2023-03-01T14:26:57;8.73;;;4.47;;
4148;SDS011;2088;51.032;7.082;2023-03-01T14:29:25;5.10;;;4.10;;
4148;SDS011;2088;51.032;7.082;2023-03-01T14:31:52;8.93;;;5.53;;
4148;SDS011;2088;51.032;7.082;2023-03-01T14:34:20;9.50;;;4.73;;
4148;SDS011;2088;51.032;7.082;2023-03-01T14:36:48;6.70;;;4.53;;
4148;SDS011;2088;51.032;7.082;2023-03-01T14:39:17;9.03;;;4.53;;
4148;SDS011;2088;51.032;7.082;2023-03-01T14:41:45;7.80;;;3.97;;
4148;SDS011;2088;51.032;7.082;2023-03-01T14:44:13;12.00;;;4.97;;
4148;SDS011;2088;51.032;7.082;2023-03-01T14:46:41;14.50;;;5.00;;
4148;SDS011;2088;51.032;7.082;2023-03-01T14:49:10;6.23;;;4.33;;
4148;SDS011;2088;51.032;7.082;2023-03-01T14:51:39;10.97;;;4.97;;
4148;SDS011;2088;51.032;7.082;2023-03-01T14:54:13;18.80;;;6.13;;
4148;SDS011;2088;51.032;7.082;2023-03-01T14:56:46;9.37;;;5.00;;
4148;SDS011;2088;51.032;7.082;2023-03-01T14:59:13;8.37;;;4.60;;
4148;SDS011;2088;51.032;7.082;2023-03-01T15:01:41;8.70;;;5.10;;
4148;SDS011;2088;51.032;7.082;2023-03-01T15:04:10;8.23;;;4.53;;
4148;SDS011;2088;51.032;7.082;2023-03-01T15:06:37;9.57;;;4.67;;
4148;SDS011;2088;51.032;7.082;2023-03-01T15:09:05;6.20;;;4.60;;
4148;SDS011;2088;51.032;7.082;2023-03-01T15:11:32;7.23;;;4.40;;
4148;SDS011;2088;51.032;7.082;2023-03-01T15:14:05;12.17;;;4.60;;
4148;SDS011;2088;51.032;7.082;2023-03-01T15:16:50;8.57;;;4.10;;
4148;SDS011;2088;51.032;7.082;2023-03-01T15:19:17;7.37;;;4.20;;
4148;SDS011;2088;51.032;7.082;2023-03-01T15:21:46;10.60;;;5.50;;
4148;SDS011;2088;51.032;7.082;2023-03-01T15:24:16;7.50;;;4.70;;
4148;SDS011;2088;51.032;7.082;2023-03-01T15:26:45;9.80;;;4.27;;
4148;SDS011;2088;51.032;7.082;2023-03-01T15:29:20;9.93;;;5.20;;
4148;SDS011;2088;51.032;7.082;2023-03-01T15:31:54;7.70;;;4.60;;
4148;SDS011;2088;51.032;7.082;2023-03-01T15:34:22;11.53;;;4.30;;